sensor_id;sensor_type;location;lat;lon;timestamp;P1;durP1;ratioP1;P2;durP2;ratioP2
23322;SDS011;11833;52.554;13.554;2023-04-24T00:02:44;3.42;;;2.70;;
23322;SDS011;11833;52.554;13.554;2023-04-24T00:05:14;3.33;;;3.03;;
23322;SDS011;11833;52.554;13.554;2023-04-24T00:07:40;3.42;;;3.13;;
23322;SDS011;11833;52.554;13.554;2023-04-24T00:10:08;2.25;;;2.13;;
23322;SDS011;11833;52.554;13.554;2023-04-24T00:12:35;2.25;;;2.05;;
23322;SDS011;11833;52.554;13.554;2023-04-24T00:15:01;3.50;;;2.60;;
23322;SDS011;11833;52.554;13.554;2023-04-24T00:17:28;3.10;;;2.80;;
23322;SDS011;11833;52.554;13.554;2023-04-24T00:19:53;4.40;;;2.40;;
23322;SDS011;11833;52.554;13.554;2023-04-24T00:22:29;3.17;;;2.88;;
23322;SDS011;11833;52.554;13.554;2023-04-24T00:24:55;4.28;;;2.90;;
23322;SDS011;11833;52.554;13.554;2023-04-24T00:27:21;3.05;;;2.75;;
23322;SDS011;11833;52.554;13.554;2023-04-24T00:29:48;4.05;;;2.75;;
23322;SDS011;11833;52.554;13.554;2023-04-24T00:32:13;3.67;;;2.50;;
23322;SDS011;11833;52.554;13.554;2023-04-24T00:34:39;2.78;;;2.53;;
23322;SDS011;11833;52.554;13.554;2023-04-24T00:37:06;4.03;;;2.70;;
23322;SDS011;11833;52.554;13.554;2023-04-24T00:39:31;3.28;;;2.78;;
23322;SDS011;11833;52.554;13.554;2023-04-24T00:41:58;3.33;;;2.40;;
23322;SDS011;11833;52.554;13.554;2023-04-24T00:44:24;3.92;;;2.53;;
23322;SDS011;11833;52.554;13.554;2023-04-24T00:46:49;3.10;;;2.90;;
23322;SDS011;11833;52.554;13.554;2023-04-24T00:49:19;2.95;;;2.70;;
23322;SDS011;11833;52.554;13.554;2023-04-24T00:51:48;3.85;;;3.20;;
23322;SDS011;11833;52.554;13.554;2023-04-24T00:54:16;3.55;;;2.80;;
23322;SDS011;11833;52.554;13.554;2023-04-24T00:56:43;3.60;;;3.28;;
23322;SDS011;11833;52.554;13.554;2023-04-24T00:59:09;3.10;;;2.80;;
23322;SDS011;11833;52.554;13.554;2023-04-24T01:01:40;3.13;;;2.42;;
23322;SDS011;11833;52.554;13.554;2023-04-24T01:04:06;4.82;;;3.08;;
23322;SDS011;11833;52.554;13.554;2023-04-24T01:06:32;2.75;;;2.55;;
23322;SDS011;11833;52.554;13.554;2023-04-24T01:08:59;4.13;;;2.85;;
23322;SDS011;11833;52.554;13.554;2023-04-24T01:11:25;3.53;;;2.70;;
23322;SDS011;11833;52.554;13.554;2023-04-24T01:13:51;4.35;;;2.78;;
23322;SDS011;11833;52.554;13.554;2023-04-24T01:16:17;4.72;;;3.00;;
23322;SDS011;11833;52.554;13.554;2023-04-24T01:18:45;4.70;;;3.03;;
23322;SDS011;11833;52.554;13.554;2023-04-24T01:21:13;3.03;;;2.63;;
23322;SDS011;11833;52.554;13.554;2023-04-24T01:23:43;3.33;;;3.03;;
23322;SDS011;11833;52.554;13.554;2023-04-24T01:26:12;2.97;;;2.72;;
23322;SDS011;11833;52.554;13.554;2023-04-24T01:28:40;3.60;;;2.97;;
23322;SDS011;11833;52.554;13.554;2023-04-24T01:31:06;3.33;;;3.13;;
23322;SDS011;11833;52.554;13.554;2023-04-24T01:33:32;4.93;;;2.97;;
23322;SDS011;11833;52.554;13.554;2023-04-24T01:35:58;3.30;;;3.00;;
23322;SDS011;11833;52.554;13.554;2023-04-24T01:38:24;5.35;;;2.85;;
23322;SDS011;11833;52.554;13.554;2023-04-24T01:40:50;2.85;;;2.58;;
23322;SDS011;11833;52.554;13.554;2023-04-24T01:43:17;3.88;;;2.78;;
23322;SDS011;11833;52.554;13.554;2023-04-24T01:45:43;3.10;;;2.58;;
23322;SDS011;11833;52.554;13.554;2023-04-24T01:48:09;5.30;;;2.88;;
23322;SDS011;11833;52.554;13.554;2023-04-24T01:50:36;3.25;;;2.65;;
23322;SDS011;11833;52.554;13.554;2023-04-24T01:53:02;3.95;;;2.88;;
23322;SDS011;11833;52.554;13.554;2023-04-24T01:55:29;3.10;;;2.80;;
23322;SDS011;11833;52.554;13.554;2023-04-24T01:57:55;3.17;;;2.88;;
23322;SDS011;11833;52.554;13.554;2023-04-24T02:00:21;3.17;;;2.88;;
23322;SDS011;11833;52.554;13.554;2023-04-24T02:02:48;2.55;;;2.35;;
23322;SDS011;11833;52.554;13.554;2023-04-24T02:05:13;4.47;;;2.50;;
23322;SDS011;11833;52.554;13.554;2023-04-24T02:07:39;3.30;;;3.00;;
23322;SDS011;11833;52.554;13.554;2023-04-24T02:10:05;3.08;;;2.78;;
23322;SDS011;11833;52.554;13.554;2023-04-24T02:12:32;3.08;;;2.78;;
23322;SDS011;11833;52.554;13.554;2023-04-24T02:14:58;3.25;;;2.50;;
23322;SDS011;11833;52.554;13.554;2023-04-24T02:17:24;3.55;;;2.67;;
23322;SDS011;11833;52.554;13.554;2023-04-24T02:19:49;3.17;;;2.63;;
23322;SDS011;11833;52.554;13.554;2023-04-24T02:22:15;3.65;;;3.30;;
23322;SDS011;11833;52.554;13.554;2023-04-24T02:24:41;2.65;;;2.45;;
23322;SDS011;11833;52.554;13.554;2023-04-24T02:27:07;4.85;;;2.42;;
23322;SDS011;11833;52.554;13.554;2023-04-24T02:29:33;3.33;;;2.45;;
23322;SDS011;11833;52.554;13.554;2023-04-24T02:31:58;3.03;;;2.72;;
23322;SDS011;11833;52.554;13.554;2023-04-24T02:34:24;3.38;;;2.53;;
23322;SDS011;11833;52.554;13.554;2023-04-24T02:36:50;3.00;;;2.50;;
23322;SDS011;11833;52.554;13.554;2023-04-24T02:39:18;4.43;;;2.70;;
23322;SDS011;11833;52.554;13.554;2023-04-24T02:41:44;4.22;;;2.90;;
23322;SDS011;11833;52.554;13.554;2023-04-24T02:44:10;3.63;;;3.28;;
23322;SDS011;11833;52.554;13.554;2023-04-24T02:46:36;3.88;;;2.92;;
23322;SDS011;11833;52.554;13.554;2023-04-24T02:49:02;3.15;;;2.80;;
23322;SDS011;11833;52.554;13.554;2023-04-24T02:51:28;3.80;;;2.63;;
23322;SDS011;11833;52.554;13.554;2023-04-24T02:53:54;6.65;;;3.35;;
23322;SDS011;11833;52.554;13.554;2023-04-24T02:56:20;2.92;;;2.72;;
23322;SDS011;11833;52.554;13.554;2023-04-24T02:58:46;2.88;;;2.63;;
23322;SDS011;11833;52.554;13.554;2023-04-24T03:01:11;4.30;;;3.10;;
23322;SDS011;11833;52.554;13.554;2023-04-24T03:03:38;2.92;;;2.72;;
23322;SDS011;11833;52.554;13.554;2023-04-24T03:06:04;2.67;;;2.47;;
23322;SDS011;11833;52.554;13.554;2023-04-24T03:08:32;3.55;;;3.25;;
23322;SDS011;11833;52.554;13.554;2023-04-24T03:10:58;4.22;;;2.50;;
23322;SDS011;11833;52.554;13.554;2023-04-24T03:13:24;2.92;;;2.70;;
23322;SDS011;11833;52.554;13.554;2023-04-24T03:15:50;3.20;;;2.90;;
23322;SDS011;11833;52.554;13.554;2023-04-24T03:18:16;3.58;;;3.08;;
23322;SDS011;11833;52.554;13.554;2023-04-24T03:20:42;2.38;;;2.17;;
23322;SDS011;11833;52.554;13.554;2023-04-24T03:23:11;3.08;;;2.75;;
23322;SDS011;11833;52.554;13.554;2023-04-24T03:25:37;3.70;;;2.78;;
23322;SDS011;11833;52.554;13.554;2023-04-24T03:28:02;3.35;;;2.95;;
23322;SDS011;11833;52.554;13.554;2023-04-24T03:30:28;4.35;;;3.30;;
23322;SDS011;11833;52.554;13.554;2023-04-24T03:32:54;3.92;;;2.97;;
23322;SDS011;11833;52.554;13.554;2023-04-24T03:35:20;5.22;;;3.10;;
23322;SDS011;11833;52.554;13.554;2023-04-24T03:37:46;3.42;;;3.05;;
23322;SDS011;11833;52.554;13.554;2023-04-24T03:40:12;2.83;;;2.38;;
23322;SDS011;11833;52.554;13.554;2023-04-24T03:42:38;3.47;;;2.63;;
23322;SDS011;11833;52.554;13.554;2023-04-24T03:45:04;6.18;;;2.85;;
23322;SDS011;11833;52.554;13.554;2023-04-24T03:47:30;3.45;;;3.15;;
23322;SDS011;11833;52.554;13.554;2023-04-24T03:49:56;3.30;;;3.10;;
23322;SDS011;11833;52.554;13.554;2023-04-24T03:52:22;3.83;;;2.42;;
23322;SDS011;11833;52.554;13.554;2023-04-24T03:54:48;4.05;;;3.47;;
23322;SDS011;11833;52.554;13.554;2023-04-24T03:57:14;3.78;;;3.35;;
23322;SDS011;11833;52.554;13.554;2023-04-24T03:59:39;3.40;;;3.00;;
23322;SDS011;11833;52.554;13.554;2023-04-24T04:02:05;3.50;;;2.92;;
23322;SDS011;11833;52.554;13.554;2023-04-24T04:04:31;4.78;;;3.15;;
23322;SDS011;11833;52.554;13.554;2023-04-24T04:06:56;3.85;;;3.35;;
23322;SDS011;11833;52.554;13.554;2023-04-24T04:09:26;2.95;;;2.75;;
23322;SDS011;11833;52.554;13.554;2023-04-24T04:11:52;3.30;;;3.00;;
23322;SDS011;11833;52.554;13.554;2023-04-24T04:14:18;3.47;;;3.17;;
23322;SDS011;11833;52.554;13.554;2023-04-24T04:16:44;3.45;;;2.75;;
23322;SDS011;11833;52.554;13.554;2023-04-24T04:19:10;3.60;;;3.22;;
23322;SDS011;11833;52.554;13.554;2023-04-24T04:21:35;4.55;;;3.25;;
23322;SDS011;11833;52.554;13.554;2023-04-24T04:24:01;3.45;;;3.15;;
23322;SDS011;11833;52.554;13.554;2023-04-24T04:26:27;4.65;;;2.83;;
23322;SDS011;11833;52.554;13.554;2023-04-24T04:28:52;2.80;;;2.35;;
23322;SDS011;11833;52.554;13.554;2023-04-24T04:31:19;4.07;;;2.67;;
23322;SDS011;11833;52.554;13.554;2023-04-24T04:33:46;4.05;;;3.33;;
23322;SDS011;11833;52.554;13.554;2023-04-24T04:36:11;3.40;;;2.95;;
23322;SDS011;11833;52.554;13.554;2023-04-24T04:38:37;3.42;;;2.97;;
23322;SDS011;11833;52.554;13.554;2023-04-24T04:41:03;3.00;;;2.70;;
23322;SDS011;11833;52.554;13.554;2023-04-24T04:43:29;5.78;;;3.17;;
23322;SDS011;11833;52.554;13.554;2023-04-24T04:45:55;5.53;;;3.75;;
23322;SDS011;11833;52.554;13.554;2023-04-24T04:48:23;3.80;;;2.80;;
23322;SDS011;11833;52.554;13.554;2023-04-24T04:50:48;4.78;;;3.03;;
23322;SDS011;11833;52.554;13.554;2023-04-24T04:53:14;5.65;;;3.78;;
23322;SDS011;11833;52.554;13.554;2023-04-24T04:55:40;5.97;;;2.55;;
23322;SDS011;11833;52.554;13.554;2023-04-24T04:58:06;3.55;;;2.75;;
23322;SDS011;11833;52.554;13.554;2023-04-24T05:00:32;5.93;;;3.63;;
23322;SDS011;11833;52.554;13.554;2023-04-24T05:03:01;2.92;;;2.60;;
23322;SDS011;11833;52.554;13.554;2023-04-24T05:05:26;6.30;;;2.80;;
23322;SDS011;11833;52.554;13.554;2023-04-24T05:07:52;3.33;;;3.03;;
23322;SDS011;11833;52.554;13.554;2023-04-24T05:10:18;2.58;;;1.80;;
23322;SDS011;11833;52.554;13.554;2023-04-24T05:12:44;3.40;;;3.08;;
23322;SDS011;11833;52.554;13.554;2023-04-24T05:15:10;6.45;;;1.75;;
23322;SDS011;11833;52.554;13.554;2023-04-24T05:17:36;3.72;;;2.67;;
23322;SDS011;11833;52.554;13.554;2023-04-24T05:20:02;2.67;;;2.40;;
23322;SDS011;11833;52.554;13.554;2023-04-24T05:22:30;3.15;;;2.45;;
23322;SDS011;11833;52.554;13.554;2023-04-24T05:24:56;1.85;;;1.63;;
23322;SDS011;11833;52.554;13.554;2023-04-24T05:27:22;2.33;;;2.13;;
23322;SDS011;11833;52.554;13.554;2023-04-24T05:29:49;3.85;;;1.90;;
23322;SDS011;11833;52.554;13.554;2023-04-24T05:32:15;5.88;;;2.47;;
23322;SDS011;11833;52.554;13.554;2023-04-24T05:34:40;5.07;;;2.20;;
23322;SDS011;11833;52.554;13.554;2023-04-24T05:37:06;4.28;;;2.17;;
23322;SDS011;11833;52.554;13.554;2023-04-24T05:39:34;4.32;;;2.47;;
23322;SDS011;11833;52.554;13.554;2023-04-24T05:42:01;3.38;;;2.70;;
23322;SDS011;11833;52.554;13.554;2023-04-24T05:44:28;3.60;;;2.25;;
23322;SDS011;11833;52.554;13.554;2023-04-24T05:46:54;3.17;;;1.70;;
23322;SDS011;11833;52.554;13.554;2023-04-24T05:49:20;2.30;;;2.10;;
23322;SDS011;11833;52.554;13.554;2023-04-24T05:51:46;3.83;;;2.20;;
23322;SDS011;11833;52.554;13.554;2023-04-24T05:54:12;3.45;;;1.98;;
23322;SDS011;11833;52.554;13.554;2023-04-24T05:56:38;2.58;;;1.95;;
23322;SDS011;11833;52.554;13.554;2023-04-24T05:59:05;3.40;;;1.80;;
23322;SDS011;11833;52.554;13.554;2023-04-24T06:01:31;2.33;;;1.80;;
23322;SDS011;11833;52.554;13.554;2023-04-24T06:03:57;4.70;;;1.73;;
23322;SDS011;11833;52.554;13.554;2023-04-24T06:06:23;4.20;;;2.33;;
23322;SDS011;11833;52.554;13.554;2023-04-24T06:08:49;4.50;;;1.50;;
23322;SDS011;11833;52.554;13.554;2023-04-24T06:11:15;2.53;;;1.20;;
23322;SDS011;11833;52.554;13.554;2023-04-24T06:13:41;2.67;;;1.80;;
23322;SDS011;11833;52.554;13.554;2023-04-24T06:16:06;1.30;;;1.20;;
23322;SDS011;11833;52.554;13.554;2023-04-24T06:18:32;2.13;;;1.40;;
23322;SDS011;11833;52.554;13.554;2023-04-24T06:20:58;1.70;;;1.13;;
23322;SDS011;11833;52.554;13.554;2023-04-24T06:23:24;1.30;;;1.20;;
23322;SDS011;11833;52.554;13.554;2023-04-24T06:25:50;1.52;;;1.40;;
23322;SDS011;11833;52.554;13.554;2023-04-24T06:28:16;2.55;;;1.70;;
23322;SDS011;11833;52.554;13.554;2023-04-24T06:30:42;2.33;;;1.33;;
23322;SDS011;11833;52.554;13.554;2023-04-24T06:33:08;1.42;;;1.30;;
23322;SDS011;11833;52.554;13.554;2023-04-24T06:35:35;4.93;;;1.00;;
23322;SDS011;11833;52.554;13.554;2023-04-24T06:38:01;2.08;;;0.95;;
23322;SDS011;11833;52.554;13.554;2023-04-24T06:40:27;1.83;;;1.33;;
23322;SDS011;11833;52.554;13.554;2023-04-24T06:42:52;1.83;;;1.00;;
23322;SDS011;11833;52.554;13.554;2023-04-24T06:45:18;3.22;;;1.20;;
23322;SDS011;11833;52.554;13.554;2023-04-24T06:47:44;3.03;;;1.25;;
23322;SDS011;11833;52.554;13.554;2023-04-24T06:50:10;1.10;;;1.00;;
23322;SDS011;11833;52.554;13.554;2023-04-24T06:52:36;4.45;;;1.10;;
23322;SDS011;11833;52.554;13.554;2023-04-24T06:55:02;1.08;;;0.85;;
23322;SDS011;11833;52.554;13.554;2023-04-24T06:57:29;4.72;;;1.23;;
23322;SDS011;11833;52.554;13.554;2023-04-24T06:59:55;6.97;;;0.85;;
23322;SDS011;11833;52.554;13.554;2023-04-24T07:02:21;3.35;;;0.93;;
23322;SDS011;11833;52.554;13.554;2023-04-24T07:04:47;1.38;;;0.75;;
23322;SDS011;11833;52.554;13.554;2023-04-24T07:07:13;3.58;;;1.02;;
23322;SDS011;11833;52.554;13.554;2023-04-24T07:09:39;4.82;;;1.27;;
23322;SDS011;11833;52.554;13.554;2023-04-24T07:12:10;1.30;;;1.15;;
23322;SDS011;11833;52.554;13.554;2023-04-24T07:14:37;2.33;;;1.27;;
23322;SDS011;11833;52.554;13.554;2023-04-24T07:17:06;2.22;;;1.08;;
23322;SDS011;11833;52.554;13.554;2023-04-24T07:19:33;0.82;;;0.80;;
23322;SDS011;11833;52.554;13.554;2023-04-24T07:22:00;4.53;;;1.30;;
23322;SDS011;11833;52.554;13.554;2023-04-24T07:24:26;2.97;;;1.02;;
23322;SDS011;11833;52.554;13.554;2023-04-24T07:26:54;2.83;;;1.42;;
23322;SDS011;11833;52.554;13.554;2023-04-24T07:29:20;4.95;;;0.98;;
23322;SDS011;11833;52.554;13.554;2023-04-24T07:31:46;1.00;;;0.70;;
23322;SDS011;11833;52.554;13.554;2023-04-24T07:34:12;3.65;;;1.20;;
23322;SDS011;11833;52.554;13.554;2023-04-24T07:36:38;1.35;;;0.75;;
23322;SDS011;11833;52.554;13.554;2023-04-24T07:39:04;1.40;;;0.80;;
23322;SDS011;11833;52.554;13.554;2023-04-24T07:41:30;2.28;;;1.20;;
23322;SDS011;11833;52.554;13.554;2023-04-24T07:43:56;1.00;;;0.80;;
23322;SDS011;11833;52.554;13.554;2023-04-24T07:46:23;7.47;;;1.38;;
23322;SDS011;11833;52.554;13.554;2023-04-24T07:48:49;2.70;;;0.98;;
23322;SDS011;11833;52.554;13.554;2023-04-24T07:51:15;3.22;;;0.80;;
23322;SDS011;11833;52.554;13.554;2023-04-24T07:53:41;1.85;;;0.70;;
23322;SDS011;11833;52.554;13.554;2023-04-24T07:56:08;1.92;;;0.70;;
23322;SDS011;11833;52.554;13.554;2023-04-24T07:58:34;0.40;;;0.40;;
23322;SDS011;11833;52.554;13.554;2023-04-24T08:01:00;1.90;;;0.60;;
23322;SDS011;11833;52.554;13.554;2023-04-24T08:03:26;0.75;;;0.60;;
23322;SDS011;11833;52.554;13.554;2023-04-24T08:05:51;2.22;;;0.82;;
23322;SDS011;11833;52.554;13.554;2023-04-24T08:08:19;6.80;;;0.65;;
23322;SDS011;11833;52.554;13.554;2023-04-24T08:10:46;2.33;;;1.33;;
23322;SDS011;11833;52.554;13.554;2023-04-24T08:13:12;2.97;;;1.08;;
23322;SDS011;11833;52.554;13.554;2023-04-24T08:15:38;1.35;;;0.77;;
23322;SDS011;11833;52.554;13.554;2023-04-24T08:18:03;0.82;;;0.55;;
23322;SDS011;11833;52.554;13.554;2023-04-24T08:20:29;0.90;;;0.35;;
23322;SDS011;11833;52.554;13.554;2023-04-24T08:22:55;0.82;;;0.50;;
23322;SDS011;11833;52.554;13.554;2023-04-24T08:25:21;5.25;;;0.52;;
23322;SDS011;11833;52.554;13.554;2023-04-24T08:27:48;3.30;;;0.70;;
23322;SDS011;11833;52.554;13.554;2023-04-24T08:30:14;4.10;;;0.68;;
23322;SDS011;11833;52.554;13.554;2023-04-24T08:32:40;3.28;;;0.55;;
23322;SDS011;11833;52.554;13.554;2023-04-24T08:35:06;2.17;;;0.65;;
23322;SDS011;11833;52.554;13.554;2023-04-24T08:37:34;3.00;;;0.50;;
23322;SDS011;11833;52.554;13.554;2023-04-24T08:40:00;1.42;;;0.35;;
23322;SDS011;11833;52.554;13.554;2023-04-24T08:42:32;0.70;;;0.40;;
23322;SDS011;11833;52.554;13.554;2023-04-24T08:45:00;0.40;;;0.30;;
23322;SDS011;11833;52.554;13.554;2023-04-24T08:47:27;0.95;;;0.52;;
23322;SDS011;11833;52.554;13.554;2023-04-24T08:49:55;0.85;;;0.40;;
23322;SDS011;11833;52.554;13.554;2023-04-24T08:52:21;1.40;;;0.50;;
23322;SDS011;11833;52.554;13.554;2023-04-24T08:54:47;0.40;;;0.30;;
23322;SDS011;11833;52.554;13.554;2023-04-24T08:57:14;5.15;;;0.68;;
23322;SDS011;11833;52.554;13.554;2023-04-24T08:59:40;0.55;;;0.40;;
23322;SDS011;11833;52.554;13.554;2023-04-24T09:02:08;2.05;;;0.30;;
23322;SDS011;11833;52.554;13.554;2023-04-24T09:04:36;0.30;;;0.30;;
23322;SDS011;11833;52.554;13.554;2023-04-24T09:07:03;1.58;;;0.55;;
23322;SDS011;11833;52.554;13.554;2023-04-24T09:09:31;1.55;;;0.45;;
23322;SDS011;11833;52.554;13.554;2023-04-24T09:11:58;1.30;;;0.55;;
23322;SDS011;11833;52.554;13.554;2023-04-24T09:14:24;0.82;;;0.50;;
23322;SDS011;11833;52.554;13.554;2023-04-24T09:16:50;2.78;;;0.90;;
23322;SDS011;11833;52.554;13.554;2023-04-24T09:19:16;2.17;;;1.15;;
23322;SDS011;11833;52.554;13.554;2023-04-24T09:21:42;1.00;;;0.40;;
23322;SDS011;11833;52.554;13.554;2023-04-24T09:24:15;1.00;;;0.80;;
23322;SDS011;11833;52.554;13.554;2023-04-24T09:26:43;1.67;;;0.75;;
23322;SDS011;11833;52.554;13.554;2023-04-24T09:29:14;0.47;;;0.32;;
23322;SDS011;11833;52.554;13.554;2023-04-24T09:31:41;0.28;;;0.28;;
23322;SDS011;11833;52.554;13.554;2023-04-24T09:34:07;2.63;;;0.60;;
23322;SDS011;11833;52.554;13.554;2023-04-24T09:39:04;1.30;;;0.50;;
23322;SDS011;11833;52.554;13.554;2023-04-24T09:41:44;0.30;;;0.30;;
23322;SDS011;11833;52.554;13.554;2023-04-24T09:44:27;2.10;;;0.55;;
23322;SDS011;11833;52.554;13.554;2023-04-24T09:46:59;2.75;;;0.40;;
23322;SDS011;11833;52.554;13.554;2023-04-24T09:49:31;2.92;;;0.38;;
23322;SDS011;11833;52.554;13.554;2023-04-24T09:52:05;0.98;;;0.40;;
23322;SDS011;11833;52.554;13.554;2023-04-24T09:54:35;0.30;;;0.30;;
23322;SDS011;11833;52.554;13.554;2023-04-24T09:57:02;2.60;;;0.50;;
23322;SDS011;11833;52.554;13.554;2023-04-24T09:59:28;0.80;;;0.40;;
23322;SDS011;11833;52.554;13.554;2023-04-24T10:01:55;0.63;;;0.40;;
23322;SDS011;11833;52.554;13.554;2023-04-24T10:04:22;1.63;;;0.57;;
23322;SDS011;11833;52.554;13.554;2023-04-24T10:06:50;0.40;;;0.38;;
23322;SDS011;11833;52.554;13.554;2023-04-24T10:09:19;2.08;;;0.52;;
23322;SDS011;11833;52.554;13.554;2023-04-24T10:11:48;1.33;;;0.35;;
23322;SDS011;11833;52.554;13.554;2023-04-24T10:14:23;1.13;;;0.45;;
23322;SDS011;11833;52.554;13.554;2023-04-24T10:16:52;1.55;;;0.70;;
23322;SDS011;11833;52.554;13.554;2023-04-24T10:19:20;0.90;;;0.43;;
23322;SDS011;11833;52.554;13.554;2023-04-24T10:21:45;1.77;;;0.50;;
23322;SDS011;11833;52.554;13.554;2023-04-24T10:24:12;0.52;;;0.43;;
23322;SDS011;11833;52.554;13.554;2023-04-24T10:26:41;1.48;;;0.30;;
23322;SDS011;11833;52.554;13.554;2023-04-24T10:29:08;0.40;;;0.35;;
23322;SDS011;11833;52.554;13.554;2023-04-24T10:31:37;5.90;;;0.40;;
23322;SDS011;11833;52.554;13.554;2023-04-24T10:34:04;1.88;;;0.38;;
23322;SDS011;11833;52.554;13.554;2023-04-24T10:36:31;1.95;;;1.05;;
23322;SDS011;11833;52.554;13.554;2023-04-24T10:39:00;0.65;;;0.50;;
23322;SDS011;11833;52.554;13.554;2023-04-24T10:41:30;0.68;;;0.30;;
23322;SDS011;11833;52.554;13.554;2023-04-24T10:44:06;1.90;;;0.40;;
23322;SDS011;11833;52.554;13.554;2023-04-24T10:46:37;0.50;;;0.30;;
23322;SDS011;11833;52.554;13.554;2023-04-24T10:49:07;2.35;;;0.35;;
23322;SDS011;11833;52.554;13.554;2023-04-24T10:51:49;0.20;;;0.20;;
23322;SDS011;11833;52.554;13.554;2023-04-24T10:54:21;0.75;;;0.40;;
23322;SDS011;11833;52.554;13.554;2023-04-24T10:56:49;1.10;;;0.40;;
23322;SDS011;11833;52.554;13.554;2023-04-24T10:59:26;1.58;;;0.40;;
23322;SDS011;11833;52.554;13.554;2023-04-24T11:01:53;8.10;;;1.38;;
23322;SDS011;11833;52.554;13.554;2023-04-24T11:04:32;2.38;;;0.50;;
23322;SDS011;11833;52.554;13.554;2023-04-24T11:07:00;3.42;;;0.30;;
23322;SDS011;11833;52.554;13.554;2023-04-24T11:09:27;0.93;;;0.68;;
23322;SDS011;11833;52.554;13.554;2023-04-24T11:12:05;1.90;;;0.73;;
23322;SDS011;11833;52.554;13.554;2023-04-24T11:17:33;1.13;;;0.50;;
23322;SDS011;11833;52.554;13.554;2023-04-24T11:20:09;0.60;;;0.43;;
23322;SDS011;11833;52.554;13.554;2023-04-24T11:22:38;0.38;;;0.38;;
23322;SDS011;11833;52.554;13.554;2023-04-24T11:25:07;0.60;;;0.40;;
23322;SDS011;11833;52.554;13.554;2023-04-24T11:27:41;0.77;;;0.50;;
23322;SDS011;11833;52.554;13.554;2023-04-24T11:30:08;2.13;;;0.32;;
23322;SDS011;11833;52.554;13.554;2023-04-24T11:32:40;3.20;;;0.52;;
23322;SDS011;11833;52.554;13.554;2023-04-24T11:37:45;0.30;;;0.30;;
23322;SDS011;11833;52.554;13.554;2023-04-24T11:40:16;1.45;;;0.68;;
23322;SDS011;11833;52.554;13.554;2023-04-24T11:42:48;0.47;;;0.45;;
23322;SDS011;11833;52.554;13.554;2023-04-24T11:45:23;3.25;;;0.73;;
23322;SDS011;11833;52.554;13.554;2023-04-24T11:47:52;1.23;;;0.52;;
23322;SDS011;11833;52.554;13.554;2023-04-24T11:50:18;1.65;;;0.28;;
23322;SDS011;11833;52.554;13.554;2023-04-24T11:52:47;0.00;;;0.00;;
23322;SDS011;11833;52.554;13.554;2023-04-24T11:57:44;0.00;;;0.00;;
23322;SDS011;11833;52.554;13.554;2023-04-24T12:00:19;0.00;;;0.00;;
23322;SDS011;11833;52.554;13.554;2023-04-24T12:02:47;0.00;;;0.00;;
23322;SDS011;11833;52.554;13.554;2023-04-24T12:05:21;0.00;;;0.00;;
23322;SDS011;11833;52.554;13.554;2023-04-24T12:07:52;0.00;;;0.00;;
23322;SDS011;11833;52.554;13.554;2023-04-24T12:10:22;0.00;;;0.00;;
23322;SDS011;11833;52.554;13.554;2023-04-24T12:12:50;0.00;;;0.00;;
23322;SDS011;11833;52.554;13.554;2023-04-24T12:15:18;0.10;;;0.10;;
23322;SDS011;11833;52.554;13.554;2023-04-24T12:17:45;0.00;;;0.00;;
23322;SDS011;11833;52.554;13.554;2023-04-24T12:20:11;0.00;;;0.00;;
23322;SDS011;11833;52.554;13.554;2023-04-24T12:25:21;0.00;;;0.00;;
23322;SDS011;11833;52.554;13.554;2023-04-24T12:27:53;0.80;;;0.43;;
23322;SDS011;11833;52.554;13.554;2023-04-24T12:30:21;0.00;;;0.00;;
23322;SDS011;11833;52.554;13.554;2023-04-24T12:32:52;0.00;;;0.00;;
23322;SDS011;11833;52.554;13.554;2023-04-24T12:35:20;0.30;;;0.30;;
23322;SDS011;11833;52.554;13.554;2023-04-24T12:37:49;0.45;;;0.20;;
23322;SDS011;11833;52.554;13.554;2023-04-24T12:40:15;2.38;;;0.40;;
23322;SDS011;11833;52.554;13.554;2023-04-24T12:42:43;0.55;;;0.40;;
23322;SDS011;11833;52.554;13.554;2023-04-24T12:45:11;1.15;;;0.40;;
23322;SDS011;11833;52.554;13.554;2023-04-24T12:47:38;0.22;;;0.20;;
23322;SDS011;11833;52.554;13.554;2023-04-24T12:50:06;1.45;;;0.40;;
23322;SDS011;11833;52.554;13.554;2023-04-24T12:52:35;1.02;;;0.43;;
23322;SDS011;11833;52.554;13.554;2023-04-24T12:55:02;4.28;;;0.40;;
23322;SDS011;11833;52.554;13.554;2023-04-24T12:57:29;0.30;;;0.22;;
23322;SDS011;11833;52.554;13.554;2023-04-24T12:59:56;1.08;;;0.40;;
23322;SDS011;11833;52.554;13.554;2023-04-24T13:02:27;6.25;;;0.50;;
23322;SDS011;11833;52.554;13.554;2023-04-24T13:04:55;2.38;;;0.50;;
23322;SDS011;11833;52.554;13.554;2023-04-24T13:07:22;1.70;;;0.40;;
23322;SDS011;11833;52.554;13.554;2023-04-24T13:09:50;1.55;;;0.40;;
23322;SDS011;11833;52.554;13.554;2023-04-24T13:12:17;0.30;;;0.20;;
23322;SDS011;11833;52.554;13.554;2023-04-24T13:14:43;0.40;;;0.30;;
23322;SDS011;11833;52.554;13.554;2023-04-24T13:17:09;0.20;;;0.20;;
23322;SDS011;11833;52.554;13.554;2023-04-24T13:19:36;0.93;;;0.90;;
23322;SDS011;11833;52.554;13.554;2023-04-24T13:22:03;0.40;;;0.20;;
23322;SDS011;11833;52.554;13.554;2023-04-24T13:24:30;0.45;;;0.30;;
23322;SDS011;11833;52.554;13.554;2023-04-24T13:26:56;0.47;;;0.20;;
23322;SDS011;11833;52.554;13.554;2023-04-24T13:29:23;1.17;;;0.30;;
23322;SDS011;11833;52.554;13.554;2023-04-24T13:31:52;1.25;;;0.43;;
23322;SDS011;11833;52.554;13.554;2023-04-24T13:34:20;0.98;;;0.40;;
23322;SDS011;11833;52.554;13.554;2023-04-24T13:36:53;0.55;;;0.10;;
23322;SDS011;11833;52.554;13.554;2023-04-24T13:39:22;6.80;;;0.40;;
23322;SDS011;11833;52.554;13.554;2023-04-24T13:41:48;0.35;;;0.22;;
23322;SDS011;11833;52.554;13.554;2023-04-24T13:44:18;3.90;;;0.47;;
23322;SDS011;11833;52.554;13.554;2023-04-24T13:46:45;0.88;;;0.82;;
23322;SDS011;11833;52.554;13.554;2023-04-24T13:49:14;0.20;;;0.20;;
23322;SDS011;11833;52.554;13.554;2023-04-24T13:51:41;4.38;;;0.55;;
23322;SDS011;11833;52.554;13.554;2023-04-24T13:54:07;1.00;;;0.25;;
23322;SDS011;11833;52.554;13.554;2023-04-24T13:56:33;2.75;;;0.30;;
23322;SDS011;11833;52.554;13.554;2023-04-24T13:58:59;0.68;;;0.30;;
23322;SDS011;11833;52.554;13.554;2023-04-24T14:01:26;1.30;;;0.90;;
23322;SDS011;11833;52.554;13.554;2023-04-24T14:03:52;0.65;;;0.38;;
23322;SDS011;11833;52.554;13.554;2023-04-24T14:06:21;0.45;;;0.20;;
23322;SDS011;11833;52.554;13.554;2023-04-24T14:08:48;0.30;;;0.25;;
23322;SDS011;11833;52.554;13.554;2023-04-24T14:11:14;0.65;;;0.50;;
23322;SDS011;11833;52.554;13.554;2023-04-24T14:13:43;3.05;;;0.82;;
23322;SDS011;11833;52.554;13.554;2023-04-24T14:16:10;1.85;;;0.20;;
23322;SDS011;11833;52.554;13.554;2023-04-24T14:18:36;0.57;;;0.40;;
23322;SDS011;11833;52.554;13.554;2023-04-24T14:21:02;1.35;;;0.55;;
23322;SDS011;11833;52.554;13.554;2023-04-24T14:23:29;0.88;;;0.40;;
23322;SDS011;11833;52.554;13.554;2023-04-24T14:25:55;1.00;;;0.35;;
23322;SDS011;11833;52.554;13.554;2023-04-24T14:28:22;0.45;;;0.32;;
23322;SDS011;11833;52.554;13.554;2023-04-24T14:30:49;0.93;;;0.40;;
23322;SDS011;11833;52.554;13.554;2023-04-24T14:33:15;0.90;;;0.20;;
23322;SDS011;11833;52.554;13.554;2023-04-24T14:35:41;2.30;;;0.40;;
23322;SDS011;11833;52.554;13.554;2023-04-24T14:38:07;0.75;;;0.32;;
23322;SDS011;11833;52.554;13.554;2023-04-24T14:40:34;2.50;;;0.30;;
23322;SDS011;11833;52.554;13.554;2023-04-24T14:43:00;0.57;;;0.57;;
23322;SDS011;11833;52.554;13.554;2023-04-24T14:45:26;1.35;;;0.38;;
23322;SDS011;11833;52.554;13.554;2023-04-24T14:47:52;2.38;;;0.70;;